Terminal Aerodrome Forecast
Issued by NWS Buffalo, NY

Home | Current Version | Previous Version | Text Only | Print | Product List | Glossary On
Versions: 1 2 3 4 5 6 7 8 9 10 11 12 13 14 15 16 17 18 19 20 21 22 23 24 25
214
FTUS41 KBUF 192333 AAB
TAFROC
TAF AMD
KROC 192333Z 2000/2018 30006KT P6SM OVC015
     FM200400 VRB03KT P6SM OVC015
     FM200900 12004KT P6SM BKN015
     FM201400 13006KT P6SM BKN025
     FM201700 13006KT P6SM BKN012=

USA.gov is the U.S. government's official web portal to all federal, state and local government web resources and services.